San Perlita, Texas
Current Conditions -  °F | °C
As of 8:52 AM on Wednesday 26 Nov 2014 (Local Time) from KHRL Reporting Station
Clear Clear  
Wind Chill: 13°   Ceiling: Unl
Heat Index: 13°   Visibility: 10mi
Dew Point:   Wind: 9mph
Humidity: 75%   Direction: 200°SSW
Pressure: 30.32"   Gusts: NA
Location:  26.5°N, 97.64°W
Report Text: KHRL 261452Z 20008KT 10SM CLR 13/09 A3032 RMK AO2 SLP267 T01330089 53015
Loading
Personal Weather Stations






























Interactive Weather Map New forecast layout! Learn more

10-Day Weather Forecast

Advertisements
Track Severe Weather on mobile